Time;durP1;ratioP1;P1;durP2;ratioP2;P2;SDS_P1;SDS_P2;PMS_P1;PMS_P2;Temp;Humidity;BMP_temperature;BMP_pressure;BME280_temperature;BME280_humidity;BME280_pressure;Samples;Min_cycle;Max_cycle;Signal;HPM_P1;HPM_P2
2023/01/01 00:01:40;;;;;;;127.27;85.03;;;8.70;99.90;;;;;;5000873;28;20037;-81
2023/01/01 00:04:10;;;;;;;122.87;77.20;;;8.70;99.90;;;;;;5003113;28;20030;-81
2023/01/01 00:06:36;;;;;;;115.70;78.67;;;8.70;99.90;;;;;;5001343;28;20034;-80
2023/01/01 00:11:46;;;;;;;98.30;60.13;;;8.90;99.90;;;;;;5003636;28;20029;-72
2023/01/01 00:14:11;;;;;;;87.30;54.07;;;9.00;99.90;;;;;;5000008;28;20483;-79
2023/01/01 00:16:37;;;;;;;73.03;46.80;;;9.00;99.90;;;;;;4997544;28;20511;-79
2023/01/01 00:19:03;;;;;;;67.63;41.17;;;9.10;99.90;;;;;;5003587;28;20105;-79
2023/01/01 00:21:28;;;;;;;56.43;33.87;;;9.10;99.90;;;;;;5002902;28;20061;-79
2023/01/01 00:23:54;;;;;;;48.50;29.53;;;9.20;99.90;;;;;;5004836;28;20069;-79
2023/01/01 00:26:19;;;;;;;44.37;29.07;;;9.30;99.90;;;;;;5005272;28;20026;-79
2023/01/01 00:28:46;;;;;;;41.97;25.87;;;9.40;99.90;;;;;;4989112;28;20594;-82
2023/01/01 00:31:18;;;;;;;38.90;23.07;;;9.50;99.90;;;;;;4986706;28;20022;-82
2023/01/01 00:33:53;;;;;;;39.07;21.93;;;9.50;99.90;;;;;;4995263;28;20042;-82
2023/01/01 00:36:20;;;;;;;30.53;20.23;;;9.60;99.90;;;;;;4987781;28;20030;-83
2023/01/01 00:38:45;;;;;;;30.17;19.30;;;9.60;99.90;;;;;;4987180;28;20204;-82
2023/01/01 00:41:13;;;;;;;32.53;19.63;;;9.70;99.90;;;;;;4987639;28;21497;-82
2023/01/01 00:43:39;;;;;;;28.83;18.47;;;9.80;99.90;;;;;;4986129;28;20128;-82
2023/01/01 00:46:05;;;;;;;28.50;18.70;;;9.80;99.90;;;;;;4987792;28;20065;-82
2023/01/01 00:48:31;;;;;;;25.17;15.53;;;9.80;99.90;;;;;;4987017;28;20026;-82
2023/01/01 00:50:56;;;;;;;21.97;15.17;;;9.90;99.90;;;;;;4987644;28;20459;-82
2023/01/01 00:53:22;;;;;;;27.80;16.07;;;10.00;99.90;;;;;;4987579;28;20113;-82
2023/01/01 00:55:49;;;;;;;23.27;15.67;;;10.10;99.90;;;;;;4987185;28;20060;-82
2023/01/01 00:58:16;;;;;;;23.37;14.53;;;10.10;99.90;;;;;;4985982;28;20125;-82
2023/01/01 01:00:42;;;;;;;23.77;12.63;;;10.10;99.90;;;;;;4987038;28;20038;-82
2023/01/01 01:03:10;;;;;;;20.63;12.35;;;10.10;99.90;;;;;;4986209;28;20026;-83
2023/01/01 01:05:37;;;;;;;17.23;11.50;;;10.10;99.90;;;;;;4987170;28;20042;-82
2023/01/01 01:08:03;;;;;;;19.47;10.47;;;10.10;99.90;;;;;;4986687;28;20044;-83
2023/01/01 01:10:29;;;;;;;19.30;11.60;;;10.10;99.90;;;;;;4987182;28;20034;-83
2023/01/01 01:12:54;;;;;;;16.93;11.07;;;10.10;99.90;;;;;;4986794;28;20035;-82
2023/01/01 01:15:20;;;;;;;16.97;11.50;;;10.10;99.90;;;;;;4986084;28;20037;-82
2023/01/01 01:17:46;;;;;;;17.63;11.53;;;10.10;99.90;;;;;;4986203;28;20130;-83
2023/01/01 01:20:12;;;;;;;18.73;12.50;;;10.10;99.90;;;;;;4986606;28;20034;-83
2023/01/01 01:22:39;;;;;;;19.87;12.00;;;10.10;99.90;;;;;;4985371;28;20046;-82
2023/01/01 01:25:05;;;;;;;16.87;10.93;;;10.10;99.90;;;;;;4986438;28;20124;-83
2023/01/01 01:27:31;;;;;;;16.87;10.73;;;10.10;99.90;;;;;;4986282;28;20113;-82
2023/01/01 01:29:57;;;;;;;23.95;11.48;;;10.10;99.90;;;;;;4985837;28;20148;-82
2023/01/01 01:32:22;;;;;;;14.90;9.30;;;10.10;99.90;;;;;;4985980;28;20041;-82
2023/01/01 01:34:48;;;;;;;14.93;9.60;;;10.10;99.90;;;;;;4984920;28;20034;-82
2023/01/01 01:37:14;;;;;;;19.27;12.37;;;10.10;99.90;;;;;;4986251;28;20026;-82
2023/01/01 01:39:39;;;;;;;23.05;14.63;;;10.20;99.90;;;;;;4986059;28;20041;-82
2023/01/01 01:42:05;;;;;;;22.70;15.40;;;10.10;99.90;;;;;;4985796;28;21094;-83
2023/01/01 01:44:51;;;;;;;24.47;15.70;;;10.10;99.90;;;;;;4985342;28;20803;-83
2023/01/01 01:47:31;;;;;;;26.55;17.23;;;10.00;99.90;;;;;;4986260;28;20038;-82
2023/01/01 01:50:05;;;;;;;26.33;17.63;;;9.90;99.90;;;;;;4985584;28;20061;-83
2023/01/01 01:52:34;;;;;;;25.67;16.67;;;9.80;99.90;;;;;;4985691;28;20180;-82
2023/01/01 01:55:02;;;;;;;28.50;17.37;;;9.60;99.90;;;;;;4986000;28;20066;-83
2023/01/01 01:57:28;;;;;;;27.03;17.60;;;9.50;99.90;;;;;;4986060;28;20046;-83
2023/01/01 01:59:55;;;;;;;30.83;18.47;;;9.40;99.90;;;;;;4985911;28;20042;-83
2023/01/01 02:02:32;;;;;;;24.70;17.63;;;9.30;99.90;;;;;;4984388;28;20044;-83
2023/01/01 02:04:59;;;;;;;27.13;16.73;;;9.20;99.90;;;;;;4986133;28;20536;-82
2023/01/01 02:07:27;;;;;;;27.50;17.77;;;9.10;99.90;;;;;;4985731;28;20277;-83
2023/01/01 02:09:53;;;;;;;32.33;19.80;;;9.00;99.90;;;;;;4985446;28;20030;-83
2023/01/01 02:12:19;;;;;;;38.27;20.90;;;8.90;99.90;;;;;;4984849;28;20463;-83
2023/01/01 02:14:44;;;;;;;33.73;21.30;;;8.80;99.90;;;;;;4984485;28;20199;-83
2023/01/01 02:17:25;;;;;;;32.30;21.83;;;8.70;99.90;;;;;;4994611;28;20428;-82
2023/01/01 02:20:20;;;;;;;36.93;21.60;;;8.60;99.90;;;;;;4985585;28;21497;-82
2023/01/01 02:23:23;;;;;;;32.90;21.33;;;8.50;99.90;;;;;;4966786;28;20119;-81
2023/01/01 02:26:10;;;;;;;34.80;21.67;;;8.50;99.90;;;;;;4985063;28;20058;-82
2023/01/01 02:28:36;;;;;;;37.60;23.30;;;8.40;99.90;;;;;;4984369;28;20030;-83
2023/01/01 02:31:02;;;;;;;34.00;21.73;;;8.30;99.90;;;;;;4985754;28;21320;-83
2023/01/01 02:33:29;;;;;;;36.07;21.70;;;8.20;99.90;;;;;;4984435;28;20046;-83
2023/01/01 02:36:01;;;;;;;32.63;21.00;;;8.20;99.90;;;;;;4985881;28;20026;-82
2023/01/01 02:38:40;;;;;;;31.20;20.13;;;8.10;99.90;;;;;;4984951;28;20038;-82
2023/01/01 02:41:13;;;;;;;31.70;20.77;;;8.00;99.90;;;;;;4985241;28;20125;-83
2023/01/01 02:43:39;;;;;;;31.07;20.27;;;8.10;99.90;;;;;;4985634;28;20042;-82
2023/01/01 02:46:07;;;;;;;31.20;19.93;;;8.00;99.90;;;;;;4977360;28;20041;-83
2023/01/01 02:48:46;;;;;;;34.90;21.43;;;8.00;99.90;;;;;;4985271;28;20041;-83
2023/01/01 02:51:37;;;;;;;32.23;20.60;;;8.00;99.90;;;;;;4985459;28;20078;-83
2023/01/01 02:54:18;;;;;;;32.07;19.93;;;8.00;99.90;;;;;;4986023;28;20034;-82
2023/01/01 02:56:57;;;;;;;33.53;18.70;;;8.00;99.90;;;;;;4984144;28;20435;-82
2023/01/01 03:02:52;;;;;;;25.67;16.23;;;8.00;99.90;;;;;;4985134;28;20042;-83
2023/01/01 03:05:28;;;;;;;31.67;19.70;;;8.00;99.90;;;;;;4984769;28;20022;-83
2023/01/01 03:08:00;;;;;;;32.87;20.73;;;8.00;99.90;;;;;;4985159;28;20026;-83
2023/01/01 03:11:04;;;;;;;33.07;20.73;;;8.00;99.90;;;;;;4983682;28;20435;-83
2023/01/01 03:13:32;;;;;;;30.63;19.27;;;8.00;99.90;;;;;;4979920;28;20904;-83
2023/01/01 03:16:16;;;;;;;28.63;17.77;;;7.90;99.90;;;;;;4983326;28;20113;-83
2023/01/01 03:19:10;;;;;;;33.90;20.87;;;7.90;99.90;;;;;;4983729;28;20018;-83
2023/01/01 03:21:41;;;;;;;30.33;18.67;;;7.90;99.90;;;;;;4984929;28;20027;-82
2023/01/01 03:24:14;;;;;;;31.30;19.90;;;7.90;99.90;;;;;;4988442;28;20108;-83
2023/01/01 03:26:41;;;;;;;33.67;20.60;;;7.90;99.90;;;;;;4987740;28;20097;-82
2023/01/01 03:29:09;;;;;;;32.77;21.00;;;7.90;99.90;;;;;;4986407;28;20053;-83
2023/01/01 03:31:39;;;;;;;32.97;21.33;;;7.90;99.90;;;;;;4988469;28;20098;-82
2023/01/01 03:34:09;;;;;;;39.37;23.10;;;7.90;99.90;;;;;;4990216;28;20032;-82
2023/01/01 03:36:38;;;;;;;29.40;20.40;;;7.90;99.90;;;;;;4988526;28;20903;-82
2023/01/01 03:39:16;;;;;;;33.13;21.07;;;7.80;99.90;;;;;;4989560;28;20030;-82
2023/01/01 03:41:48;;;;;;;34.77;21.27;;;7.80;99.90;;;;;;4989105;28;20033;-82
2023/01/01 03:44:24;;;;;;;29.13;21.03;;;7.80;99.90;;;;;;4988476;28;20040;-82
2023/01/01 03:46:50;;;;;;;31.53;20.47;;;7.80;99.90;;;;;;4988855;28;20022;-82
2023/01/01 03:49:16;;;;;;;30.43;20.60;;;7.80;99.90;;;;;;4988983;28;20029;-83
2023/01/01 03:51:49;;;;;;;27.53;19.63;;;7.80;99.90;;;;;;4988582;28;20447;-83
2023/01/01 03:54:31;;;;;;;33.20;21.27;;;7.80;99.90;;;;;;4980616;28;20030;-83
2023/01/01 03:57:16;;;;;;;34.90;22.33;;;7.80;99.90;;;;;;4986566;28;20041;-83
2023/01/01 04:00:07;;;;;;;32.90;21.67;;;7.80;99.90;;;;;;4988259;28;20124;-83
2023/01/01 04:02:53;;;;;;;34.47;21.60;;;7.70;99.90;;;;;;4988439;28;20030;-82
2023/01/01 04:05:20;;;;;;;34.77;22.30;;;7.70;99.90;;;;;;4988581;28;20113;-83
2023/01/01 04:07:46;;;;;;;36.27;22.77;;;7.70;99.90;;;;;;4991753;28;20045;-83
2023/01/01 04:10:18;;;;;;;33.87;22.50;;;7.60;99.90;;;;;;4991715;28;20023;-82
2023/01/01 04:12:47;;;;;;;34.43;21.83;;;7.50;99.90;;;;;;4990435;28;20483;-82
2023/01/01 04:15:13;;;;;;;31.27;21.10;;;7.50;99.90;;;;;;4988562;28;20026;-83
2023/01/01 04:17:38;;;;;;;32.40;19.87;;;7.50;99.90;;;;;;4990643;28;20403;-83
2023/01/01 04:20:04;;;;;;;29.83;20.30;;;7.40;99.90;;;;;;4991549;28;20101;-83
2023/01/01 04:22:30;;;;;;;27.80;16.67;;;7.40;99.90;;;;;;4991684;28;20450;-82
2023/01/01 04:24:55;;;;;;;24.83;16.20;;;7.40;99.90;;;;;;4990999;28;20106;-83
2023/01/01 04:27:21;;;;;;;23.97;16.90;;;7.30;99.90;;;;;;4988911;28;20467;-82
2023/01/01 04:29:46;;;;;;;27.83;16.67;;;7.40;99.90;;;;;;4989230;28;21527;-82
2023/01/01 04:32:12;;;;;;;27.27;18.53;;;7.30;99.90;;;;;;4991582;28;20057;-82
2023/01/01 04:34:38;;;;;;;26.60;17.00;;;7.30;99.90;;;;;;4989123;28;20040;-83
2023/01/01 04:37:03;;;;;;;26.83;16.80;;;7.30;99.90;;;;;;4989368;28;20030;-82
2023/01/01 04:39:29;;;;;;;22.37;15.10;;;7.30;99.90;;;;;;4991368;28;20089;-83
2023/01/01 04:41:54;;;;;;;23.87;15.90;;;7.30;99.90;;;;;;4991468;28;20108;-83
2023/01/01 04:44:20;;;;;;;22.10;15.47;;;7.40;99.90;;;;;;4989656;28;20026;-82
2023/01/01 04:46:45;;;;;;;25.07;14.83;;;7.40;99.90;;;;;;4989504;28;20718;-82
2023/01/01 04:49:11;;;;;;;22.93;15.17;;;7.40;99.90;;;;;;4991309;28;20019;-83
2023/01/01 04:51:36;;;;;;;24.53;15.03;;;7.40;99.90;;;;;;4990762;28;20050;-83
2023/01/01 04:54:02;;;;;;;27.00;15.07;;;7.50;99.90;;;;;;4990610;28;20038;-82
2023/01/01 04:56:28;;;;;;;22.53;14.97;;;7.50;99.90;;;;;;4991217;28;20041;-82
2023/01/01 04:58:56;;;;;;;25.17;15.10;;;7.50;99.90;;;;;;4989929;28;20085;-82
2023/01/01 05:01:26;;;;;;;23.03;15.83;;;7.60;99.90;;;;;;4990021;28;20444;-82
2023/01/01 05:03:53;;;;;;;19.50;13.10;;;7.60;99.90;;;;;;4989962;28;20038;-82
2023/01/01 05:06:18;;;;;;;18.67;12.53;;;7.60;99.90;;;;;;4991344;28;20025;-82
2023/01/01 05:08:46;;;;;;;18.27;12.20;;;7.60;99.90;;;;;;4990547;28;20022;-82
2023/01/01 05:11:18;;;;;;;21.07;11.97;;;7.60;99.90;;;;;;4990331;28;20018;-82
2023/01/01 05:13:45;;;;;;;19.20;12.03;;;7.60;99.90;;;;;;4989361;28;20026;-82
2023/01/01 05:16:17;;;;;;;20.77;11.70;;;7.70;99.90;;;;;;4989679;28;20061;-83
2023/01/01 05:18:44;;;;;;;15.27;11.13;;;7.70;99.90;;;;;;4990351;28;20034;-83
2023/01/01 05:21:15;;;;;;;16.97;10.77;;;7.70;99.90;;;;;;4990467;28;20065;-82
2023/01/01 05:23:41;;;;;;;14.10;9.47;;;7.70;99.90;;;;;;4996859;28;20171;-82
2023/01/01 05:26:22;;;;;;;15.13;10.93;;;7.70;99.90;;;;;;4990089;28;20041;-83
2023/01/01 05:28:47;;;;;;;18.60;12.17;;;7.80;99.90;;;;;;4983340;28;20030;-83
2023/01/01 05:31:16;;;;;;;21.43;13.57;;;7.70;99.90;;;;;;4992294;28;20435;-79
2023/01/01 05:33:42;;;;;;;19.07;12.53;;;7.70;99.90;;;;;;4994838;28;20356;-79
2023/01/01 05:36:17;;;;;;;15.70;10.57;;;7.70;99.90;;;;;;5009850;28;20070;-79
2023/01/01 05:38:42;;;;;;;12.60;9.05;;;7.70;99.90;;;;;;4994826;28;20507;-79
2023/01/01 05:41:10;;;;;;;12.77;8.83;;;7.60;99.90;;;;;;4994871;28;20067;-79
2023/01/01 05:43:36;;;;;;;11.67;8.20;;;7.60;99.90;;;;;;4994668;28;20030;-79
2023/01/01 05:46:16;;;;;;;11.90;8.03;;;7.70;99.90;;;;;;4993908;28;20485;-84
2023/01/01 05:48:42;;;;;;;15.93;9.13;;;7.70;99.90;;;;;;4989403;28;20364;-85
2023/01/01 05:51:11;;;;;;;12.73;7.43;;;7.70;99.90;;;;;;4988633;28;20022;-84
2023/01/01 05:53:36;;;;;;;12.83;7.10;;;7.70;99.90;;;;;;4989384;28;20771;-85
2023/01/01 05:56:03;;;;;;;10.60;6.70;;;7.70;99.90;;;;;;4981112;28;20074;-84
2023/01/01 05:58:30;;;;;;;11.03;6.47;;;7.70;99.90;;;;;;4989768;28;20136;-84
2023/01/01 06:00:55;;;;;;;8.93;6.03;;;7.80;99.90;;;;;;4988543;28;20026;-85
2023/01/01 06:03:21;;;;;;;8.13;4.93;;;7.80;99.90;;;;;;4988242;28;20041;-85
2023/01/01 06:05:47;;;;;;;8.40;5.10;;;7.90;99.90;;;;;;4990427;28;20037;-84
2023/01/01 06:08:13;;;;;;;7.93;4.40;;;8.00;99.90;;;;;;4990002;28;20015;-84
2023/01/01 06:10:38;;;;;;;7.67;4.90;;;8.10;99.90;;;;;;4989232;28;20018;-85
2023/01/01 06:13:04;;;;;;;8.53;3.80;;;8.20;99.90;;;;;;4987832;28;20030;-84
2023/01/01 06:15:30;;;;;;;8.40;4.33;;;8.30;99.90;;;;;;4989240;28;20034;-85
2023/01/01 06:17:57;;;;;;;7.37;3.97;;;8.40;99.90;;;;;;4990059;28;20087;-84
2023/01/01 06:20:23;;;;;;;6.30;3.83;;;8.50;99.90;;;;;;4989183;28;20029;-84
2023/01/01 06:22:48;;;;;;;6.97;3.70;;;8.60;99.90;;;;;;4988494;28;20050;-84
2023/01/01 06:25:15;;;;;;;6.40;3.80;;;8.70;99.90;;;;;;4988672;28;20149;-85
2023/01/01 06:27:40;;;;;;;7.00;4.03;;;8.70;99.90;;;;;;4987401;28;20121;-84
2023/01/01 06:30:07;;;;;;;6.67;4.10;;;8.70;99.90;;;;;;4989515;28;20026;-84
2023/01/01 06:32:32;;;;;;;6.90;4.53;;;8.70;99.90;;;;;;4988950;28;20030;-85
2023/01/01 06:34:58;;;;;;;8.77;4.67;;;8.60;99.90;;;;;;4989071;28;20076;-85
2023/01/01 06:37:24;;;;;;;9.93;4.97;;;8.60;99.90;;;;;;4988993;28;20026;-85
2023/01/01 06:39:49;;;;;;;8.70;5.47;;;8.50;99.90;;;;;;4989257;28;20026;-85
2023/01/01 06:42:15;;;;;;;8.87;5.90;;;8.30;99.90;;;;;;4988999;28;20042;-85
2023/01/01 06:44:40;;;;;;;9.23;4.80;;;8.20;99.90;;;;;;4988395;28;20026;-85
2023/01/01 06:47:07;;;;;;;9.60;5.20;;;8.10;99.90;;;;;;4988524;28;20022;-85
2023/01/01 06:49:33;;;;;;;7.80;4.70;;;8.00;99.90;;;;;;4988272;28;20030;-84
2023/01/01 06:51:58;;;;;;;8.07;4.73;;;7.90;99.90;;;;;;4989578;28;20034;-85
2023/01/01 06:54:24;;;;;;;8.40;5.20;;;7.90;99.90;;;;;;4989424;28;20026;-85
2023/01/01 06:56:49;;;;;;;7.00;4.10;;;7.80;99.90;;;;;;4988073;28;20395;-85
2023/01/01 06:59:16;;;;;;;6.23;4.43;;;7.80;99.90;;;;;;4988927;28;20967;-85
2023/01/01 07:01:41;;;;;;;9.03;5.27;;;7.80;99.90;;;;;;4989538;28;20045;-85
2023/01/01 07:04:10;;;;;;;8.20;4.97;;;7.70;99.90;;;;;;4989088;28;20018;-85
2023/01/01 07:06:37;;;;;;;8.60;5.67;;;7.70;99.90;;;;;;4989525;28;20037;-85
2023/01/01 07:09:04;;;;;;;14.30;6.77;;;7.50;99.90;;;;;;4989507;28;20034;-85
2023/01/01 07:11:30;;;;;;;11.10;7.03;;;7.40;99.90;;;;;;4989913;28;20379;-85
2023/01/01 07:13:55;;;;;;;10.73;7.10;;;7.30;99.90;;;;;;4989740;28;20113;-85
2023/01/01 07:16:22;;;;;;;13.13;7.80;;;7.20;99.90;;;;;;4989889;28;20045;-85
2023/01/01 07:18:49;;;;;;;10.90;7.40;;;7.10;99.90;;;;;;4988373;28;20089;-84
2023/01/01 07:21:24;;;;;;;11.03;7.30;;;7.00;99.90;;;;;;4988281;28;20022;-85
2023/01/01 07:23:49;;;;;;;12.45;7.18;;;6.90;99.90;;;;;;4988031;28;20556;-84
2023/01/01 07:26:15;;;;;;;11.40;6.53;;;6.90;99.90;;;;;;4989257;28;20026;-84
2023/01/01 07:28:41;;;;;;;7.90;5.27;;;6.90;99.90;;;;;;4985645;28;20347;-76
2023/01/01 07:31:06;;;;;;;6.80;4.60;;;6.90;99.90;;;;;;4988334;28;20472;-76
2023/01/01 07:33:32;;;;;;;7.87;4.70;;;6.90;99.90;;;;;;4989134;28;20117;-76
2023/01/01 07:35:59;;;;;;;6.53;3.60;;;7.00;99.90;;;;;;4988694;28;20022;-85
2023/01/01 07:38:25;;;;;;;9.07;4.67;;;7.00;99.90;;;;;;4992334;28;20119;-84
2023/01/01 07:40:50;;;;;;;7.70;4.60;;;7.00;99.90;;;;;;4992890;28;20448;-85
2023/01/01 07:43:16;;;;;;;5.63;3.93;;;7.10;99.90;;;;;;4991056;28;20109;-85
2023/01/01 07:45:41;;;;;;;7.20;4.23;;;7.20;99.90;;;;;;4990985;28;20025;-84
2023/01/01 07:48:12;;;;;;;5.83;3.83;;;7.30;99.90;;;;;;4992325;28;20029;-85
2023/01/01 07:50:37;;;;;;;7.47;4.47;;;7.30;99.90;;;;;;4989603;28;20035;-85
2023/01/01 07:53:03;;;;;;;7.00;4.13;;;7.40;99.90;;;;;;4992237;28;20045;-85
2023/01/01 07:55:28;;;;;;;8.47;3.67;;;7.50;99.90;;;;;;4991790;28;20027;-85
2023/01/01 07:57:54;;;;;;;5.43;3.50;;;7.60;99.90;;;;;;4989206;28;20031;-85
2023/01/01 08:00:20;;;;;;;4.23;3.10;;;7.70;99.90;;;;;;4987989;28;20030;-84
2023/01/01 08:02:46;;;;;;;4.77;3.33;;;7.90;99.90;;;;;;4992660;28;20093;-84
2023/01/01 08:05:12;;;;;;;6.27;3.20;;;8.00;99.90;;;;;;4993590;28;20026;-84
2023/01/01 08:07:38;;;;;;;6.20;2.97;;;8.20;99.90;;;;;;4992167;28;20030;-84
2023/01/01 08:10:05;;;;;;;6.33;3.20;;;8.30;99.90;;;;;;4993168;28;20838;-85
2023/01/01 08:12:30;;;;;;;6.80;3.10;;;8.50;99.90;;;;;;5002126;28;20030;-84
2023/01/01 08:14:56;;;;;;;3.03;2.17;;;8.70;99.90;;;;;;4993028;28;20101;-84
2023/01/01 08:17:21;;;;;;;3.87;2.73;;;8.90;99.90;;;;;;4995175;28;20550;-85
2023/01/01 08:19:48;;;;;;;4.40;2.63;;;9.10;99.90;;;;;;4995775;28;20030;-84
2023/01/01 08:22:14;;;;;;;4.50;2.60;;;9.30;99.90;;;;;;4998948;28;20415;-85
2023/01/01 08:24:40;;;;;;;3.93;2.30;;;9.50;99.90;;;;;;4993360;28;20022;-85
2023/01/01 08:27:06;;;;;;;4.27;2.40;;;9.80;99.90;;;;;;4995408;28;20018;-85
2023/01/01 08:29:31;;;;;;;3.97;2.20;;;10.00;99.90;;;;;;4991437;28;20038;-85
2023/01/01 08:31:57;;;;;;;3.43;2.40;;;10.10;99.90;;;;;;4993985;28;20125;-85
2023/01/01 08:34:22;;;;;;;3.70;2.23;;;10.20;99.90;;;;;;4994134;28;20428;-86
2023/01/01 08:36:48;;;;;;;6.03;2.73;;;10.40;99.90;;;;;;4992943;28;20656;-85
2023/01/01 08:39:13;;;;;;;5.13;2.67;;;10.50;99.90;;;;;;4992650;28;20490;-85
2023/01/01 08:41:39;;;;;;;5.17;2.70;;;10.60;99.90;;;;;;4992021;28;20038;-85
2023/01/01 08:44:04;;;;;;;4.77;2.73;;;10.80;99.90;;;;;;4993913;28;20060;-85
2023/01/01 08:46:30;;;;;;;5.83;3.20;;;10.80;99.90;;;;;;4995332;28;20101;-85
2023/01/01 08:48:55;;;;;;;7.88;3.00;;;10.90;99.90;;;;;;4990277;28;20027;-85
2023/01/01 08:51:21;;;;;;;5.00;2.97;;;10.90;99.90;;;;;;4990458;28;20046;-85
2023/01/01 08:53:46;;;;;;;3.92;2.35;;;10.90;99.90;;;;;;4991342;28;20038;-85
2023/01/01 08:56:14;;;;;;;8.05;2.90;;;10.90;99.90;;;;;;4989782;28;20022;-85
2023/01/01 08:58:41;;;;;;;3.75;2.40;;;11.00;99.90;;;;;;4991560;28;20080;-85
2023/01/01 09:01:07;;;;;;;5.00;2.67;;;10.90;99.90;;;;;;4988785;28;20097;-84
2023/01/01 09:03:33;;;;;;;6.72;2.90;;;10.90;99.90;;;;;;4987977;28;20434;-84
2023/01/01 09:05:59;;;;;;;6.07;2.70;;;10.90;99.90;;;;;;4989154;28;20030;-85
2023/01/01 09:08:25;;;;;;;4.95;2.75;;;10.80;99.90;;;;;;4990662;28;20027;-83
2023/01/01 09:10:51;;;;;;;5.28;2.25;;;10.90;99.90;;;;;;4987161;28;20036;-83
2023/01/01 09:13:20;;;;;;;4.27;2.77;;;10.80;99.90;;;;;;4990575;28;20026;-83
2023/01/01 09:15:46;;;;;;;4.38;3.28;;;10.90;99.90;;;;;;4985912;28;20102;-83
2023/01/01 09:18:11;;;;;;;7.35;2.72;;;10.90;99.90;;;;;;4988126;28;20129;-83
2023/01/01 09:20:37;;;;;;;3.90;2.50;;;10.90;99.90;;;;;;4988622;28;20185;-83
2023/01/01 09:23:04;;;;;;;4.20;2.20;;;10.90;99.90;;;;;;4989878;28;20046;-83
2023/01/01 09:25:30;;;;;;;6.00;2.38;;;11.00;99.90;;;;;;4989424;28;20026;-83
2023/01/01 09:27:57;;;;;;;4.63;2.15;;;11.10;99.90;;;;;;4987836;28;20364;-83
2023/01/01 09:30:23;;;;;;;3.50;2.30;;;11.10;99.90;;;;;;4990524;28;20085;-83
2023/01/01 09:32:48;;;;;;;4.72;2.45;;;11.20;99.90;;;;;;4988878;28;20064;-83
2023/01/01 09:35:14;;;;;;;5.40;3.63;;;11.30;99.90;;;;;;4987918;28;20057;-83
2023/01/01 09:37:39;;;;;;;5.50;3.10;;;11.40;99.90;;;;;;4985836;28;20030;-83
2023/01/01 09:40:06;;;;;;;3.20;2.30;;;11.40;99.90;;;;;;4984988;28;20034;-83
2023/01/01 09:42:42;;;;;;;4.20;2.20;;;11.50;99.90;;;;;;4983796;28;20027;-83
2023/01/01 09:45:25;;;;;;;3.05;1.83;;;11.60;99.90;;;;;;4983569;28;20145;-83
2023/01/01 09:48:02;;;;;;;3.45;2.20;;;11.70;99.90;;;;;;4977691;28;20029;-84
2023/01/01 09:50:44;;;;;;;4.22;2.50;;;11.80;99.90;;;;;;4984830;28;20113;-84
2023/01/01 09:53:30;;;;;;;4.78;2.25;;;12.00;99.90;;;;;;4985562;28;20049;-84
2023/01/01 09:56:04;;;;;;;5.72;2.40;;;12.10;99.90;;;;;;4985366;28;20045;-84
2023/01/01 09:58:35;;;;;;;3.07;2.00;;;12.30;99.90;;;;;;4986548;28;20077;-85
2023/01/01 10:01:18;;;;;;;5.68;2.38;;;12.50;99.90;;;;;;4985418;28;20026;-84
2023/01/01 10:03:54;;;;;;;3.80;2.22;;;12.70;99.90;;;;;;4985693;28;20039;-84
2023/01/01 10:06:26;;;;;;;3.28;2.03;;;13.00;99.90;;;;;;4985853;28;20336;-85
2023/01/01 10:09:19;;;;;;;5.30;2.30;;;13.20;99.90;;;;;;4984750;28;20521;-84
2023/01/01 10:11:49;;;;;;;4.47;2.17;;;13.50;99.90;;;;;;4985698;28;20034;-84
2023/01/01 10:14:29;;;;;;;3.35;2.00;;;13.60;99.90;;;;;;4985051;28;20023;-84
2023/01/01 10:16:56;;;;;;;4.20;2.30;;;13.90;99.90;;;;;;4984547;28;20105;-84
2023/01/01 10:19:25;;;;;;;3.70;2.05;;;14.10;99.90;;;;;;4984164;28;20029;-84
2023/01/01 10:21:53;;;;;;;3.05;1.83;;;14.30;99.90;;;;;;4983591;28;20037;-84
2023/01/01 10:24:29;;;;;;;2.80;2.17;;;14.50;99.90;;;;;;4984204;28;20026;-86
2023/01/01 10:26:56;;;;;;;7.35;2.17;;;14.70;99.90;;;;;;4985683;28;20034;-86
2023/01/01 10:29:37;;;;;;;3.90;2.25;;;14.80;99.90;;;;;;4984657;28;20026;-84
2023/01/01 10:32:33;;;;;;;3.55;2.00;;;15.00;99.90;;;;;;4985414;28;20037;-85
2023/01/01 10:34:59;;;;;;;;;;;15.00;99.90;;;;;;4985705;28;20078;-85
2023/01/01 10:37:30;;;;;;;3.08;2.08;;;15.00;99.90;;;;;;4996735;28;19972;-84
2023/01/01 10:39:55;;;;;;;5.13;2.03;;;14.90;99.90;;;;;;4983775;28;20638;-85
2023/01/01 10:42:21;;;;;;;3.42;2.08;;;14.90;99.90;;;;;;4985280;28;20038;-84
2023/01/01 10:44:50;;;;;;;2.83;1.83;;;15.00;99.90;;;;;;4985327;28;20037;-85
2023/01/01 10:47:28;;;;;;;3.75;1.90;;;15.00;99.90;;;;;;4983829;28;20395;-84
2023/01/01 10:49:56;;;;;;;4.35;1.90;;;15.00;99.90;;;;;;4991927;28;20383;-86
2023/01/01 10:52:35;;;;;;;2.95;1.80;;;15.00;99.90;;;;;;4987944;28;20026;-85
2023/01/01 10:55:01;;;;;;;6.20;1.98;;;15.10;99.90;;;;;;4984440;28;20360;-85
2023/01/01 10:57:26;;;;;;;2.50;1.77;;;15.10;99.90;;;;;;4986375;28;20064;-85
2023/01/01 10:59:52;;;;;;;2.80;1.70;;;15.20;99.90;;;;;;4985304;28;20471;-85
2023/01/01 11:02:25;;;;;;;2.95;1.80;;;15.30;99.90;;;;;;4984310;28;20065;-85
2023/01/01 11:04:52;;;;;;;3.83;1.90;;;15.40;99.90;;;;;;4983193;28;20023;-85
2023/01/01 11:07:27;;;;;;;2.83;1.70;;;15.40;99.90;;;;;;4983558;28;20037;-87
2023/01/01 11:10:00;;;;;;;2.38;1.50;;;15.50;99.90;;;;;;4987444;28;20140;-83
2023/01/01 11:12:30;;;;;;;5.65;1.92;;;15.50;99.90;;;;;;4992927;28;20145;-83
2023/01/01 11:14:58;;;;;;;2.22;1.50;;;15.60;99.90;;;;;;4985247;28;20512;-75
2023/01/01 11:17:35;;;;;;;3.33;1.70;;;15.60;99.90;;;;;;4984030;28;20026;-83
2023/01/01 11:20:02;;;;;;;4.63;1.83;;;15.70;99.90;;;;;;4982884;28;20563;-78
2023/01/01 11:22:36;;;;;;;5.80;1.80;;;15.70;99.90;;;;;;4984112;28;20061;-84
2023/01/01 11:25:03;;;;;;;3.00;1.90;;;15.80;99.90;;;;;;4989189;28;20815;-80
2023/01/01 11:27:29;;;;;;;3.17;1.90;;;15.80;99.90;;;;;;4984354;28;20034;-80
2023/01/01 11:30:31;;;;;;;2.95;1.83;;;15.80;99.90;;;;;;4984788;28;20023;-79
2023/01/01 11:33:00;;;;;;;3.00;1.80;;;15.90;99.90;;;;;;4983559;28;20039;-80
2023/01/01 11:35:31;;;;;;;3.20;2.03;;;15.90;99.90;;;;;;4984813;28;20447;-79
2023/01/01 11:37:58;;;;;;;3.58;1.80;;;15.80;99.90;;;;;;4985245;28;20117;-79
2023/01/01 11:40:32;;;;;;;6.18;1.80;;;15.80;99.90;;;;;;4982795;28;20117;-79
2023/01/01 11:43:01;;;;;;;2.97;2.03;;;15.90;99.90;;;;;;4984698;28;20034;-80
2023/01/01 11:45:33;;;;;;;2.53;1.70;;;15.90;99.90;;;;;;4988300;28;20027;-79
2023/01/01 11:48:23;;;;;;;2.50;1.58;;;16.00;99.90;;;;;;4988327;28;20019;-79
2023/01/01 11:50:55;;;;;;;3.08;2.15;;;16.00;99.90;;;;;;4984925;28;20475;-79
2023/01/01 11:53:21;;;;;;;3.30;1.77;;;16.10;99.90;;;;;;4986669;28;20062;-79
2023/01/01 11:56:08;;;;;;;3.53;1.77;;;16.20;99.90;;;;;;4986725;28;20555;-80
2023/01/01 11:58:54;;;;;;;2.65;1.50;;;16.30;99.90;;;;;;4996046;28;20041;-79
2023/01/01 12:01:25;;;;;;;4.22;1.55;;;16.30;99.90;;;;;;4987651;28;20113;-80
2023/01/01 12:04:04;;;;;;;3.05;1.83;;;16.40;99.90;;;;;;4986936;28;20035;-79
2023/01/01 12:06:35;;;;;;;2.97;2.08;;;16.40;99.90;;;;;;4986448;28;20113;-79
2023/01/01 12:09:18;;;;;;;4.72;1.80;;;16.50;99.90;;;;;;4985429;28;20038;-79
2023/01/01 12:12:04;;;;;;;2.35;1.70;;;16.50;99.90;;;;;;4986461;28;20594;-79
2023/01/01 12:14:35;;;;;;;3.33;1.95;;;16.70;99.90;;;;;;4985018;28;20061;-79
2023/01/01 12:17:11;;;;;;;3.00;1.58;;;16.80;99.90;;;;;;4987197;28;20026;-79
2023/01/01 12:19:47;;;;;;;2.80;1.65;;;16.90;99.90;;;;;;4985979;28;20030;-79
2023/01/01 12:22:17;;;;;;;3.08;1.60;;;17.00;99.90;;;;;;4986259;28;20128;-80
2023/01/01 12:24:44;;;;;;;6.47;1.80;;;17.00;99.90;;;;;;4986818;28;20038;-77
2023/01/01 12:27:27;;;;;;;2.92;1.70;;;17.10;99.90;;;;;;4987884;28;20167;-76
2023/01/01 12:30:11;;;;;;;2.67;1.73;;;17.20;99.90;;;;;;4979183;28;20034;-77
2023/01/01 12:32:45;;;;;;;3.78;1.70;;;17.20;99.90;;;;;;4987485;28;20030;-76
2023/01/01 12:35:26;;;;;;;4.35;1.50;;;17.20;99.90;;;;;;4987398;28;20030;-77
2023/01/01 12:38:28;;;;;;;2.78;1.70;;;17.20;99.90;;;;;;4985790;28;20038;-77
2023/01/01 12:41:24;;;;;;;2.03;1.40;;;17.30;99.90;;;;;;4985376;28;20034;-77
2023/01/01 12:44:02;;;;;;;2.13;1.30;;;17.30;99.90;;;;;;4986631;28;20037;-76
2023/01/01 12:46:51;;;;;;;2.97;1.55;;;17.30;99.90;;;;;;4987064;28;20106;-77
2023/01/01 12:49:34;;;;;;;3.33;1.90;;;17.40;99.90;;;;;;4985040;28;20045;-76
2023/01/01 12:52:15;;;;;;;2.15;1.30;;;17.30;99.90;;;;;;4986494;28;20439;-77
2023/01/01 12:55:21;;;;;;;3.40;1.75;;;17.30;99.90;;;;;;4984384;28;20144;-78
2023/01/01 12:58:05;;;;;;;4.60;1.67;;;17.30;99.90;;;;;;4986540;28;20034;-78
2023/01/01 13:00:31;;;;;;;2.75;1.80;;;17.30;99.90;;;;;;4988421;28;20498;-78
2023/01/01 13:03:28;;;;;;;2.85;1.48;;;17.30;99.90;;;;;;4987758;28;20133;-78
2023/01/01 13:05:56;;;;;;;2.90;1.58;;;17.30;99.90;;;;;;4983821;28;20042;-78